• Join FlightAware (Why Join?)
  • Login
  • US Flag 
07:18PM EST


 

Airport Tracker/Info


-or-


 

Live Flight TrackerFlight Track Log ✈ N5316G ✈ 14-Jul-2013 ✈ KVNY - KCPU

Flight Track Log - Related Links

Times and Time Zones

All times are in EDT time to prevent confusion due to time zone crossing. See the N5316G flight status page for this flight to view local times or setup timezone preferences in your user account.

Time Position Orientation Groundspeed Altitude Reporting Facility
EDT Latitude Longitude Course Direction KTS MPH feet Rate Location/Type
07:00PM 34.1906 -118.4922 338° Northwest 85 98 1,800  Level Los Angeles Center
07:01PM 34.1725 -118.5086 217° Southwest 81 93 2,600 720 Climbing Los Angeles Center
07:02PM 34.1586 -118.5250 224° Southwest 74 85 3,300 660 Climbing Los Angeles Center
07:03PM 34.1494 -118.5431 238° Southwest 69 79 4,000 600 Climbing Los Angeles Center
07:04PM 34.1475 -118.5692 265° West 65 75 4,600 540 Climbing Los Angeles Center
07:06PM 34.3452 -118.6226 338° Northwest  Level FlightAware Approximate
07:06PM 34.1456 -118.5928 264° West 68 78 5,200  Level Los Angeles Center
07:07PM 34.1542 -118.6089 303° West 74 85 5,800 480 Climbing Los Angeles Center
07:08PM 34.1742 -118.6078 North 78 90 6,300 420 Climbing Los Angeles Center
07:09PM 34.2011 -118.6050 North 79 91 6,800 480 Climbing Los Angeles Center
07:10PM 34.2297 -118.6067 357° North 83 96 7,400 480 Climbing Los Angeles Center
07:11PM 34.2533 -118.6056 North 85 98 7,800 360 Climbing Los Angeles Center
07:12PM 34.2775 -118.6078 356° North 86 99 8,200 360 Climbing Los Angeles Center
07:13PM 34.3014 -118.6111 353° North 87 100 8,600 300 Climbing Los Angeles Center
07:14PM 34.3206 -118.6197 340° North 91 105 8,900 300 Climbing Los Angeles Center
07:15PM 34.3508 -118.6314 342° North 94 108 9,300 300 Climbing Los Angeles Center
07:16PM 34.3803 -118.6469 336° Northwest 96 110 9,600 240 Climbing Los Angeles Center
07:17PM 34.4056 -118.6636 331° Northwest 104 120 9,900 120 Climbing Los Angeles Center
07:18PM 34.4372 -118.6836 332° Northwest 109 125 10,000  Climbing Los Angeles Center
07:19PM 34.4678 -118.6994 337° Northwest 119 137 10,000  Level Los Angeles Center
07:20PM 34.5000 -118.7156 338° Northwest 125 144 10,000  Level Los Angeles Center
07:21PM 34.5378 -118.7308 342° North 119 137 10,000  Level Los Angeles Center
07:22PM 34.5636 -118.7419 340° North 123 142 10,000  Level Los Angeles Center
07:24PM 34.6022 -118.7592 340° North 122 140 10,000  Level Los Angeles Center
07:25PM 34.6333 -118.7742 338° Northwest 119 137 10,100  Climbing Los Angeles Center
07:26PM 34.6636 -118.7911 335° Northwest 121 139 10,100  Level Los Angeles Center
07:27PM 34.6947 -118.8064 338° Northwest 120 138 10,100  Level Los Angeles Center
07:28PM 34.7303 -118.8222 340° North 115 132 10,100  Level Los Angeles Center
07:29PM 34.7608 -118.8392 336° Northwest 118 136 10,100  Level Los Angeles Center
07:30PM 34.7833 -118.8519 335° Northwest 115 132 10,100  Level Los Angeles Center
07:31PM 34.8172 -118.8714 335° Northwest 113 130 10,100  Level Los Angeles Center
07:32PM 34.8508 -118.8800 348° North 119 137 10,100  Level Los Angeles Center
07:33PM 34.8842 -118.8856 352° North 120 138 10,100 -60 Level Los Angeles Center
07:34PM 34.9194 -118.8983 343° North 123 142 10,000 -60 Descending Los Angeles Center
07:35PM 34.9525 -118.9106 343° North 123 142 10,000  Level Los Angeles Center
07:36PM 34.9906 -118.9258 342° North 121 139 10,000  Level Los Angeles Center
07:37PM 35.0222 -118.9383 342° North 120 138 10,000  Level Los Angeles Center
07:38PM 35.0531 -118.9494 344° North 118 136 10,000  Level Los Angeles Center
07:39PM 35.0842 -118.9639 339° North 119 137 10,000  Level Los Angeles Center
07:40PM 35.1122 -118.9811 333° Northwest 114 131 10,000  Level Los Angeles Center
07:41PM 35.1433 -118.9953 340° North 118 136 10,000  Level Los Angeles Center
07:42PM 35.1803 -119.0117 340° North 118 136 10,000  Level Los Angeles Center
07:43PM 35.2122 -119.0239 343° North 120 138 10,000  Level Los Angeles Center
07:44PM 35.2450 -119.0364 343° North 121 139 10,000  Level Los Angeles Center
07:45PM 35.2758 -119.0522 337° Northwest 121 139 10,000  Level Los Angeles Center
07:46PM 35.3081 -119.0658 341° North 121 139 10,000  Level Los Angeles Center
07:47PM 35.3464 -119.0825 340° North 122 140 10,000  Level Los Angeles Center
07:48PM 35.3775 -119.0981 338° Northwest 122 140 10,000  Level Los Angeles Center
07:49PM 35.4089 -119.1119 340° North 121 139 10,000  Level Los Angeles Center
07:50PM 35.4336 -119.1233 339° North 120 138 10,000  Level Los Angeles Center
07:51PM 35.4714 -119.1400 340° North 120 138 10,000  Level Los Angeles Center
07:52PM 35.5039 -119.1561 338° Northwest 122 140 10,000  Level Los Angeles Center
07:54PM 35.5411 -119.1744 338° Northwest 122 140 10,000  Level Los Angeles Center
07:55PM 35.5722 -119.1897 338° Northwest 121 139 10,000  Level Los Angeles Center
07:56PM 35.6050 -119.2056 339° North 123 142 10,000  Level Los Angeles Center
07:57PM 35.6358 -119.2206 338° Northwest 121 139 10,000  Level Los Angeles Center
07:58PM 35.6669 -119.2375 336° Northwest 122 140 10,000  Level Los Angeles Center
07:59PM 35.7067 -119.2556 340° North 124 143 10,000  Level Los Angeles Center
08:00PM 35.7397 -119.2703 340° North 126 145 10,000  Level Los Angeles Center
08:01PM 35.7739 -119.2853 340° North 129 148 10,000  Level Los Angeles Center
08:02PM 35.8067 -119.3003 340° North 127 146 10,000  Level Los Angeles Center
08:03PM 35.8389 -119.3153 339° North 125 144 10,000  Level Los Angeles Center
08:04PM 35.8711 -119.3294 340° North 124 143 10,000  Level Los Angeles Center
08:05PM 35.9100 -119.3478 339° North 124 143 10,000  Level Los Angeles Center
08:06PM 35.9436 -119.3633 339° North 126 145 10,000  Level Los Angeles Center
08:07PM 35.9761 -119.3797 338° Northwest 126 145 10,000  Level Los Angeles Center
08:08PM 36.0089 -119.3958 338° Northwest 126 145 10,000  Level Los Angeles Center
08:09PM 36.0422 -119.4117 339° North 127 146 10,000  Level Los Angeles Center
08:10PM 36.0811 -119.4300 339° North 126 145 10,000  Level Los Angeles Center
08:11PM 36.1139 -119.4461 338° Northwest 127 146 10,000  Level Los Angeles Center
08:12PM 36.1472 -119.4611 340° North 127 146 10,000  Level Los Angeles Center
08:13PM 36.1803 -119.4761 340° North 127 146 10,000  Level Los Angeles Center
08:14PM 36.2131 -119.4914 339° North 126 145 10,000  Level Los Angeles Center
08:15PM 36.2478 -119.5086 338° Northwest 130 150 10,000  Level Los Angeles Center
08:16PM 36.2875 -119.5292 337° Northwest 129 148 10,000  Level Los Angeles Center
08:17PM 36.3211 -119.5447 340° North 129 148 10,000  Level Los Angeles Center
08:18PM 36.3558 -119.5589 342° North 131 151 10,000  Level Oakland Center
08:19PM 36.3894 -119.5756 338° Northwest 130 150 10,000  Level Oakland Center
08:20PM 36.4311 -119.5944 340° North 133 153 10,000  Level Oakland Center
08:22PM 36.4650 -119.6103 339° North 131 151 10,000  Level Oakland Center
08:23PM 36.4989 -119.6267 339° North 131 151 10,000  Level Oakland Center
08:24PM 36.5325 -119.6428 339° North 130 150 10,000  Level Oakland Center
08:25PM 36.5667 -119.6594 339° North 132 152 10,000  Level Oakland Center
08:26PM 36.6017 -119.6764 339° North 133 153 10,000  Level Oakland Center
08:27PM 36.6353 -119.6931 338° Northwest 131 151 10,000  Level Oakland Center
08:28PM 36.6703 -119.7106 338° Northwest 135 155 10,000  Level Oakland Center
08:29PM 36.7108 -119.7311 338° Northwest 133 153 10,000  Level Oakland Center
08:30PM 36.7453 -119.7486 338° Northwest 134 154 10,000  Level Oakland Center
08:31PM 36.7803 -119.7650 339° North 134 154 10,000  Level Oakland Center
08:32PM 36.8150 -119.7825 338° Northwest 134 154 10,000  Level Oakland Center
08:33PM 36.8489 -119.7986 339° North 132 152 10,000  Level Oakland Center
08:34PM 36.8839 -119.8158 339° North 134 154 10,000  Level Oakland Center
08:35PM 36.9144 -119.8408 327° Northwest 132 152 10,000  Level Oakland Center
08:36PM 36.9425 -119.8708 319° Northwest 132 152 10,000  Level Oakland Center
08:37PM 36.9758 -119.9064 320° Northwest 132 152 10,000  Level Oakland Center
08:38PM 37.0044 -119.9369 320° Northwest 134 154 10,000  Level Oakland Center
08:39PM 37.0331 -119.9669 320° Northwest 135 155 10,000  Level Oakland Center
08:40PM 37.0614 -119.9947 322° Northwest 131 151 10,000  Level Oakland Center
08:41PM 37.0928 -120.0258 322° Northwest 129 148 10,000  Level Oakland Center
08:42PM 37.1222 -120.0547 322° Northwest 133 153 10,000  Level Oakland Center
08:43PM 37.1519 -120.0833 323° Northwest 133 153 10,000  Level Oakland Center
08:44PM 37.1822 -120.1111 324° Northwest 135 155 10,000  Level Oakland Center
08:45PM 37.2117 -120.1403 322° Northwest 133 153 10,000  Level Oakland Center
08:46PM 37.2417 -120.1689 323° Northwest 135 155 10,000  Level Oakland Center
08:47PM 37.2717 -120.2008 320° Northwest 141 162 10,000  Level Oakland Center
08:48PM 37.3019 -120.2297 323° Northwest 138 159 10,000  Level Oakland Center
08:49PM 37.3311 -120.2625 318° Northwest 140 161 10,000  Level Oakland Center
08:50PM 37.3608 -120.2931 321° Northwest 142 163 10,000  Level Oakland Center
08:51PM 37.3958 -120.3289 321° Northwest 145 167 10,000  Level Oakland Center
08:52PM 37.4264 -120.3581 323° Northwest 145 167 10,000  Level Oakland Center
08:53PM 37.4567 -120.3883 322° Northwest 142 163 10,000 -60 Level Oakland Center
08:54PM 37.4889 -120.4139 328° Northwest 151 174 9,900 -60 Descending Oakland Center
08:55PM 37.5186 -120.4475 318° Northwest 148 170 9,900 -240 Level Oakland Center
08:56PM 37.5542 -120.4697 334° Northwest 161 185 9,500 -420 Descending Oakland Center
08:57PM 37.5839 -120.5044 317° Northwest 148 170 9,100 -480 Descending Oakland Center
08:58PM 37.6172 -120.5364 323° Northwest 149 171 8,600 -540 Descending Oakland Center
08:59PM 37.6525 -120.5597 332° Northwest 147 169 8,100 -360 Descending Oakland Center
09:00PM 37.7017 -120.5556 North 147 169 7,900 -180 Descending Oakland Center
09:01PM 37.7392 -120.5533 North 138 159 7,800 -300 Descending Oakland Center
09:02PM 37.7783 -120.5592 353° North 140 161 7,300 -540 Descending Oakland Center
09:03PM 37.8175 -120.5714 346° North 143 165 6,800 -540 Descending Oakland Center
09:04PM 37.8586 -120.5806 350° North 147 169 6,300 -540 Descending Oakland Center
09:06PM 37.8994 -120.5886 351° North 148 170 5,800 -300 Descending Oakland Center
09:07PM 37.9381 -120.5953 352° North 148 170 5,700 -120 Descending Oakland Center